FDX2329 EGLL-KBOS
Flight info
| Callsign | FDX2329 |
|---|---|
| Flight time | N/A |
| Altitude | 36000 |
| Route | CPT L9 BUCGO DCT FELCA DCT OFSOX DCT BANBA DCT TOBOR/M082F360 NATC ELSIR/N0462F380 DCT TUSKY DCT EURRO OOSHN5 |
| Aircraft | B77L/H-SDE1E2E3FGHIJ2J3J4J5M1RWXY/LB1D1 |
Departure
| Time | 2026-05-06 10:55 |
|---|---|
| Airport | London Heathrow Airport (EGLL) |
Arrival
| Time | N/A |
|---|---|
| Airport | Boston Logan International Airport (KBOS) |
| Time | Latitude | Longitude | Altitude | Speed | Heading |
|---|---|---|---|---|---|
| 2026-05-06 10:23 | 51.46191 | -0.46707 | 91 ft | 0 kts | 180° |
| 2026-05-06 10:37 | 51.46193 | -0.46707 | 90 ft | 1 kts | 180° |
| 2026-05-06 10:37 | 51.46210 | -0.46708 | 94 ft | 3 kts | 180° |
| 2026-05-06 10:37 | 51.46230 | -0.46709 | 93 ft | 3 kts | 180° |
| 2026-05-06 10:37 | 51.46250 | -0.46710 | 90 ft | 3 kts | 179° |
| 2026-05-06 10:38 | 51.46270 | -0.46710 | 92 ft | 3 kts | 182° |
| 2026-05-06 10:38 | 51.46290 | -0.46707 | 91 ft | 3 kts | 199° |
| 2026-05-06 10:38 | 51.46308 | -0.46694 | 92 ft | 3 kts | 221° |
| 2026-05-06 10:38 | 51.46319 | -0.46671 | 94 ft | 3 kts | 255° |
| 2026-05-06 10:39 | 51.46321 | -0.46656 | 92 ft | 0 kts | 270° |
| 2026-05-06 10:42 | 51.46321 | -0.46671 | 94 ft | 5 kts | 270° |
| 2026-05-06 10:43 | 51.46323 | -0.46785 | 93 ft | 15 kts | 270° |
| 2026-05-06 10:43 | 51.46324 | -0.47008 | 90 ft | 24 kts | 270° |
| 2026-05-06 10:43 | 51.46322 | -0.47204 | 90 ft | 14 kts | 269° |
| 2026-05-06 10:44 | 51.46321 | -0.47305 | 93 ft | 0 kts | 277° |
| 2026-05-06 10:45 | 51.46320 | -0.47296 | 93 ft | 3 kts | 276° |
| 2026-05-06 10:45 | 51.46320 | -0.47299 | 93 ft | 0 kts | 277° |
| 2026-05-06 10:47 | 51.46336 | -0.47424 | 93 ft | 25 kts | 279° |
| 2026-05-06 10:47 | 51.46311 | -0.47708 | 92 ft | 26 kts | 242° |
| 2026-05-06 10:47 | 51.46252 | -0.47980 | 91 ft | 26 kts | 270° |
| 2026-05-06 10:47 | 51.46252 | -0.48277 | 88 ft | 26 kts | 269° |
| 2026-05-06 10:48 | 51.46251 | -0.48543 | 87 ft | 19 kts | 275° |
| 2026-05-06 10:48 | 51.46285 | -0.48676 | 91 ft | 7 kts | 311° |
| 2026-05-06 10:48 | 51.46297 | -0.48693 | 91 ft | 0 kts | 320° |
| 2026-05-06 10:51 | 51.46298 | -0.48695 | 91 ft | 0 kts | 320° |
| 2026-05-06 10:52 | 51.46318 | -0.48715 | 91 ft | 9 kts | 330° |
| 2026-05-06 10:52 | 51.46400 | -0.48749 | 93 ft | 13 kts | 357° |
| 2026-05-06 10:52 | 51.46474 | -0.48689 | 95 ft | 13 kts | 75° |
| 2026-05-06 10:52 | 51.46478 | -0.48575 | 92 ft | 0 kts | 89° |
| 2026-05-06 10:54 | 51.46479 | -0.48397 | 92 ft | 49 kts | 90° |
| 2026-05-06 10:54 | 51.46483 | -0.47424 | 89 ft | 123 kts | 90° |
| 2026-05-06 10:54 | 51.46489 | -0.45714 | 110 ft | 181 kts | 89° |
| 2026-05-06 10:55 | 51.46497 | -0.43641 | 633 ft | 195 kts | 85° |
| 2026-05-06 10:55 | 51.46465 | -0.41342 | 1137 ft | 207 kts | 103° |
| 2026-05-06 10:55 | 51.45573 | -0.39394 | 1638 ft | 236 kts | 148° |
| 2026-05-06 10:55 | 51.43897 | -0.38532 | 1674 ft | 276 kts | 164° |
| 2026-05-06 10:56 | 51.42003 | -0.37468 | 1487 ft | 299 kts | 162° |
| 2026-05-06 10:56 | 51.40611 | -0.37098 | 1487 ft | 306 kts | 181° |
| 2026-05-06 10:56 | 51.37991 | -0.38851 | 2128 ft | 314 kts | 230° |
| 2026-05-06 10:56 | 51.37033 | -0.41793 | 3741 ft | 290 kts | 263° |
| 2026-05-06 10:57 | 51.37011 | -0.43844 | 4898 ft | 264 kts | 284° |
| 2026-05-06 10:57 | 51.37398 | -0.46606 | 6302 ft | 250 kts | 288° |
| 2026-05-06 10:57 | 51.37841 | -0.49342 | 7135 ft | 258 kts | 288° |
| 2026-05-06 10:57 | 51.38298 | -0.52106 | 7926 ft | 265 kts | 288° |
| 2026-05-06 10:58 | 51.38774 | -0.54996 | 8789 ft | 271 kts | 287° |
| 2026-05-06 10:58 | 51.39255 | -0.57941 | 9694 ft | 275 kts | 287° |
| 2026-05-06 10:58 | 51.39894 | -0.61908 | 10803 ft | 282 kts | 285° |
| 2026-05-06 10:58 | 51.40224 | -0.63980 | 11314 ft | 284 kts | 285° |
| 2026-05-06 10:59 | 51.40709 | -0.67040 | 12289 ft | 281 kts | 286° |
| 2026-05-06 10:59 | 51.41184 | -0.70063 | 13180 ft | 284 kts | 285° |
| 2026-05-06 10:59 | 51.41674 | -0.73184 | 13837 ft | 293 kts | 285° |
| 2026-05-06 10:59 | 51.42171 | -0.76366 | 14618 ft | 293 kts | 285° |
| 2026-05-06 11:00 | 51.42670 | -0.79581 | 15308 ft | 300 kts | 284° |
| 2026-05-06 11:00 | 51.43345 | -0.83940 | 16224 ft | 306 kts | 284° |
| 2026-05-06 11:00 | 51.43684 | -0.86129 | 16854 ft | 304 kts | 284° |
| 2026-05-06 11:00 | 51.44193 | -0.89427 | 17674 ft | 306 kts | 284° |
| 2026-05-06 11:01 | 51.44706 | -0.92768 | 18343 ft | 311 kts | 284° |
| 2026-05-06 11:01 | 51.45217 | -0.96093 | 18997 ft | 312 kts | 284° |
| 2026-05-06 11:01 | 51.45738 | -0.99486 | 19703 ft | 313 kts | 283° |
| 2026-05-06 11:01 | 51.46264 | -1.02923 | 20319 ft | 318 kts | 283° |
| 2026-05-06 11:02 | 51.46788 | -1.06365 | 20821 ft | 326 kts | 283° |
| 2026-05-06 11:02 | 51.47331 | -1.09922 | 21420 ft | 330 kts | 283° |
| 2026-05-06 11:02 | 51.47871 | -1.13447 | 22187 ft | 328 kts | 283° |
| 2026-05-06 11:02 | 51.48422 | -1.17025 | 22792 ft | 334 kts | 283° |
| 2026-05-06 11:03 | 51.48987 | -1.20691 | 23306 ft | 340 kts | 283° |
| 2026-05-06 11:03 | 51.49553 | -1.24353 | 23886 ft | 343 kts | 283° |
| 2026-05-06 11:03 | 51.50129 | -1.28075 | 24492 ft | 343 kts | 283° |
| 2026-05-06 11:03 | 51.50632 | -1.31317 | 25059 ft | 344 kts | 283° |
| 2026-05-06 11:04 | 51.51269 | -1.34983 | 25506 ft | 346 kts | 292° |
| 2026-05-06 11:04 | 51.52400 | -1.38421 | 26038 ft | 349 kts | 301° |
| 2026-05-06 11:04 | 51.54336 | -1.43012 | 26655 ft | 358 kts | 304° |
| 2026-05-06 11:04 | 51.57218 | -1.49693 | 27787 ft | 362 kts | 303° |
| 2026-05-06 11:05 | 51.60048 | -1.56507 | 28796 ft | 370 kts | 302° |
| 2026-05-06 11:05 | 51.62839 | -1.63387 | 29965 ft | 372 kts | 302° |
| 2026-05-06 11:05 | 51.65679 | -1.70432 | 30956 ft | 375 kts | 302° |
| 2026-05-06 11:05 | 51.68523 | -1.77512 | 31962 ft | 374 kts | 302° |
| 2026-05-06 11:06 | 51.71278 | -1.84597 | 32982 ft | 370 kts | 293° |
| 2026-05-06 11:06 | 51.72193 | -1.92588 | 33671 ft | 369 kts | 273° |
| 2026-05-06 11:06 | 51.72689 | -2.00869 | 34381 ft | 370 kts | 276° |
| 2026-05-06 11:06 | 51.73295 | -2.09178 | 34880 ft | 374 kts | 276° |
| 2026-05-06 11:07 | 51.73881 | -2.17550 | 35422 ft | 377 kts | 276° |
| 2026-05-06 11:07 | 51.74461 | -2.25926 | 35863 ft | 382 kts | 276° |
| 2026-05-06 11:07 | 51.75053 | -2.34541 | 36101 ft | 391 kts | 276° |
| 2026-05-06 11:07 | 51.75659 | -2.43451 | 36147 ft | 407 kts | 276° |
| 2026-05-06 11:08 | 51.76097 | -2.49951 | 36140 ft | 418 kts | 275° |
| 2026-05-06 11:08 | 51.76715 | -2.59519 | 36080 ft | 436 kts | 275° |
| 2026-05-06 11:09 | 51.79451 | -3.02668 | 36338 ft | 482 kts | 275° |
| 2026-05-06 11:09 | 51.82087 | -3.46751 | 36999 ft | 492 kts | 275° |
| 2026-05-06 11:09 | 51.82809 | -3.57566 | 37009 ft | 489 kts | 280° |
| 2026-05-06 11:09 | 51.83488 | -3.62893 | 37050 ft | 477 kts | 282° |
| 2026-05-06 11:10 | 51.84935 | -3.73240 | 37017 ft | 470 kts | 282° |
| 2026-05-06 11:10 | 51.95318 | -4.55532 | 37004 ft | 462 kts | 281° |
| 2026-05-06 11:11 | 52.02197 | -5.38212 | 37103 ft | 472 kts | 259° |
| 2026-05-06 11:11 | 51.98209 | -5.85377 | 37002 ft | 475 kts | 263° |
| 2026-05-06 11:11 | 51.96624 | -6.06570 | 36850 ft | 468 kts | 263° |
| 2026-05-06 11:12 | 51.95366 | -6.27195 | 36821 ft | 460 kts | 275° |
| 2026-05-06 11:12 | 51.96921 | -6.40362 | 37104 ft | 455 kts | 280° |
| 2026-05-06 11:12 | 51.97479 | -6.45504 | 37045 ft | 462 kts | 279° |
| 2026-05-06 11:13 | 51.98499 | -6.55859 | 37064 ft | 472 kts | 279° |